Time;durP1;ratioP1;P1;durP2;ratioP2;P2;SDS_P1;SDS_P2;PMS_P1;PMS_P2;Temp;Humidity;BMP_temperature;BMP_pressure;BME280_temperature;BME280_humidity;BME280_pressure;Samples;Min_cycle;Max_cycle;Signal;HPM_P1;HPM_P2
2022/03/26 00:00:44;;;;;;;6.70;5.50;;;19.10;51.30;;;;;;5015329;28;20552;-68
2022/03/26 00:03:09;;;;;;;6.90;5.72;;;19.10;51.30;;;;;;5015284;28;20376;-68
2022/03/26 00:05:35;;;;;;;6.28;5.38;;;19.10;51.30;;;;;;5013993;28;20017;-68
2022/03/26 00:08:01;;;;;;;10.35;6.18;;;19.10;51.40;;;;;;5014049;28;20488;-68
2022/03/26 00:10:26;;;;;;;5.43;4.93;;;19.10;51.40;;;;;;5014218;28;20511;-68
2022/03/26 00:12:52;;;;;;;6.47;5.75;;;19.10;51.40;;;;;;5014011;28;20037;-68
2022/03/26 00:15:19;;;;;;;9.07;5.45;;;19.10;51.50;;;;;;5015087;28;20495;-68
2022/03/26 00:17:44;;;;;;;6.75;5.47;;;19.10;51.60;;;;;;5013836;28;20046;-68
2022/03/26 00:20:10;;;;;;;6.93;5.57;;;19.10;51.50;;;;;;5014642;28;20073;-68
2022/03/26 00:22:36;;;;;;;7.15;5.18;;;19.10;51.60;;;;;;5015144;28;20100;-68
2022/03/26 00:25:02;;;;;;;8.20;5.80;;;19.10;51.60;;;;;;5028024;28;20495;-68
2022/03/26 00:27:28;;;;;;;6.45;5.40;;;19.10;51.70;;;;;;5034658;28;20103;-68
2022/03/26 00:29:53;;;;;;;7.63;5.32;;;19.10;51.60;;;;;;5033686;28;20022;-68
2022/03/26 00:32:19;;;;;;;7.18;5.88;;;19.10;51.70;;;;;;5021530;28;20049;-68
2022/03/26 00:34:45;;;;;;;6.35;5.10;;;19.10;51.70;;;;;;5014707;28;20029;-68
2022/03/26 00:37:11;;;;;;;6.60;5.20;;;19.10;51.80;;;;;;5013672;28;20030;-68
2022/03/26 00:39:39;;;;;;;5.93;5.32;;;19.10;51.80;;;;;;5014632;28;20029;-69
2022/03/26 00:42:05;;;;;;;5.35;4.78;;;19.10;51.80;;;;;;5013148;28;20042;-69
2022/03/26 00:44:31;;;;;;;5.78;5.13;;;19.10;51.80;;;;;;5014771;28;20080;-69
2022/03/26 00:46:57;;;;;;;6.57;5.30;;;19.10;51.90;;;;;;5014611;28;20477;-69
2022/03/26 00:49:22;;;;;;;7.45;5.05;;;19.10;52.00;;;;;;5014319;28;20064;-69
2022/03/26 00:51:48;;;;;;;6.95;4.82;;;19.10;52.00;;;;;;5014448;28;20068;-69
2022/03/26 00:54:13;;;;;;;6.40;5.13;;;19.10;52.00;;;;;;5014438;28;20057;-69
2022/03/26 00:56:40;;;;;;;6.32;4.88;;;19.10;52.00;;;;;;5013337;28;20468;-69
2022/03/26 00:59:06;;;;;;;5.75;5.20;;;19.10;52.10;;;;;;5014238;28;20100;-69
2022/03/26 01:01:32;;;;;;;6.50;4.75;;;19.10;52.10;;;;;;5014362;28;20584;-69
2022/03/26 01:03:59;;;;;;;6.18;4.85;;;19.10;52.10;;;;;;5014192;28;20401;-69
2022/03/26 01:06:24;;;;;;;5.47;4.88;;;19.10;52.20;;;;;;5013043;28;20033;-69
2022/03/26 01:08:50;;;;;;;5.15;4.63;;;19.10;52.20;;;;;;5013075;28;20022;-69
2022/03/26 01:11:17;;;;;;;7.25;4.78;;;19.10;52.20;;;;;;5014116;28;20026;-69
2022/03/26 01:13:43;;;;;;;5.53;4.93;;;19.10;52.20;;;;;;5014074;28;20108;-69
2022/03/26 01:16:09;;;;;;;5.38;4.88;;;19.10;52.30;;;;;;5014046;28;20518;-69
2022/03/26 01:18:34;;;;;;;4.97;4.45;;;19.10;52.30;;;;;;5012717;28;20030;-69
2022/03/26 01:21:01;;;;;;;6.95;5.13;;;19.10;52.40;;;;;;5013726;28;20034;-69
2022/03/26 01:23:26;;;;;;;5.45;4.85;;;19.10;52.40;;;;;;5012766;28;20022;-68
2022/03/26 01:25:52;;;;;;;6.72;4.53;;;19.10;52.40;;;;;;5033584;28;20026;-68
2022/03/26 01:28:18;;;;;;;5.45;4.72;;;19.10;52.50;;;;;;5033427;28;20408;-68
2022/03/26 01:30:43;;;;;;;4.72;4.22;;;19.10;52.50;;;;;;5033554;28;20112;-68
2022/03/26 01:33:09;;;;;;;5.30;4.80;;;19.10;52.60;;;;;;5013603;28;20033;-68
2022/03/26 01:35:35;;;;;;;5.00;4.50;;;19.10;52.60;;;;;;5012381;28;20036;-68
2022/03/26 01:38:01;;;;;;;4.82;4.43;;;19.10;52.60;;;;;;5012643;28;20032;-68
2022/03/26 01:40:27;;;;;;;4.35;3.95;;;19.10;53.10;;;;;;5013355;28;20022;-68
2022/03/26 01:42:54;;;;;;;6.57;4.50;;;19.10;52.70;;;;;;5012376;28;20041;-68
2022/03/26 01:45:19;;;;;;;4.90;4.20;;;19.10;52.70;;;;;;5013224;28;20026;-68
2022/03/26 01:47:45;;;;;;;4.45;4.03;;;19.10;52.70;;;;;;5013473;28;20026;-68
2022/03/26 01:50:11;;;;;;;4.55;4.10;;;19.10;52.80;;;;;;5013468;28;20052;-68
2022/03/26 01:52:36;;;;;;;5.10;4.43;;;19.10;52.80;;;;;;5013508;28;20393;-68
2022/03/26 01:55:02;;;;;;;5.35;4.28;;;19.10;52.90;;;;;;5013276;28;20419;-68
2022/03/26 01:57:28;;;;;;;4.50;4.10;;;19.10;52.80;;;;;;5011913;28;20136;-68
2022/03/26 01:59:54;;;;;;;4.97;4.28;;;19.00;52.90;;;;;;5011792;28;20396;-68
2022/03/26 02:02:20;;;;;;;5.47;4.53;;;19.10;52.90;;;;;;5012011;28;20076;-68
2022/03/26 02:04:46;;;;;;;5.25;4.60;;;19.10;53.00;;;;;;5012074;28;20076;-68
2022/03/26 02:07:11;;;;;;;5.65;4.32;;;19.10;53.00;;;;;;5011789;28;20018;-68
2022/03/26 02:09:37;;;;;;;5.15;4.13;;;19.00;54.00;;;;;;5011914;28;20029;-68
2022/03/26 02:12:21;;;;;;;4.43;4.03;;;19.00;53.10;;;;;;5013102;28;20040;-68
2022/03/26 02:14:46;;;;;;;4.22;3.67;;;19.10;53.10;;;;;;5012873;28;20131;-68
2022/03/26 02:17:12;;;;;;;4.47;4.07;;;19.00;53.20;;;;;;5012932;28;20464;-68
2022/03/26 02:19:37;;;;;;;5.13;4.03;;;19.00;53.10;;;;;;5013052;28;20554;-68
2022/03/26 02:22:03;;;;;;;4.57;4.07;;;19.10;53.20;;;;;;5012834;28;20034;-68
2022/03/26 02:24:29;;;;;;;5.50;3.80;;;19.10;53.30;;;;;;5020226;28;20033;-68
2022/03/26 02:26:55;;;;;;;5.35;4.13;;;19.10;53.30;;;;;;5032642;28;20022;-68
2022/03/26 02:29:20;;;;;;;4.75;4.10;;;19.00;53.30;;;;;;5031236;28;20052;-68
2022/03/26 02:31:46;;;;;;;4.75;4.20;;;19.00;53.20;;;;;;5025341;28;20495;-68
2022/03/26 02:34:12;;;;;;;5.05;4.40;;;19.00;53.30;;;;;;5012126;28;20041;-68
2022/03/26 02:36:37;;;;;;;4.28;3.88;;;19.10;53.40;;;;;;5012699;28;20036;-68
2022/03/26 02:39:04;;;;;;;3.75;3.45;;;19.10;53.40;;;;;;5011621;28;20034;-68
2022/03/26 02:41:29;;;;;;;5.50;3.70;;;19.00;53.40;;;;;;5012413;28;20551;-68
2022/03/26 02:43:55;;;;;;;4.35;3.95;;;19.00;53.40;;;;;;5012447;28;20046;-68
2022/03/26 02:46:20;;;;;;;5.00;4.03;;;19.00;53.50;;;;;;5012578;28;20392;-68
2022/03/26 02:48:46;;;;;;;4.00;3.60;;;19.00;53.50;;;;;;5012481;28;20033;-68
2022/03/26 02:51:12;;;;;;;4.18;3.78;;;19.10;53.50;;;;;;5012819;28;20030;-68
2022/03/26 02:53:37;;;;;;;4.88;4.13;;;19.00;53.60;;;;;;5012517;28;20032;-68
2022/03/26 02:56:03;;;;;;;5.68;3.80;;;19.00;53.60;;;;;;5012525;28;20033;-68
2022/03/26 02:58:29;;;;;;;4.07;3.58;;;19.00;53.60;;;;;;5012510;28;20029;-68
2022/03/26 03:00:55;;;;;;;4.95;3.85;;;19.00;53.60;;;;;;5012307;28;20025;-68
2022/03/26 03:03:20;;;;;;;4.07;3.70;;;19.00;53.70;;;;;;5011595;28;20018;-68
2022/03/26 03:05:46;;;;;;;5.45;3.60;;;19.00;53.70;;;;;;5012428;28;20523;-68
2022/03/26 03:08:14;;;;;;;6.55;3.95;;;19.10;53.80;;;;;;5012342;28;20029;-68
2022/03/26 03:10:40;;;;;;;4.93;4.05;;;19.00;53.70;;;;;;5012480;28;20480;-68
2022/03/26 03:13:06;;;;;;;4.30;3.90;;;19.00;53.70;;;;;;5012272;28;20029;-68
2022/03/26 03:15:32;;;;;;;4.80;4.07;;;19.00;53.80;;;;;;5011021;28;20025;-68
2022/03/26 03:17:58;;;;;;;4.22;3.63;;;19.00;53.80;;;;;;5012444;28;20503;-68
2022/03/26 03:20:23;;;;;;;3.78;3.30;;;19.00;53.80;;;;;;5012402;28;20029;-68
2022/03/26 03:22:49;;;;;;;4.80;3.67;;;19.00;53.80;;;;;;5012161;28;20076;-68
2022/03/26 03:25:14;;;;;;;5.05;3.95;;;19.00;53.90;;;;;;5026041;28;20025;-68
2022/03/26 03:27:40;;;;;;;5.55;3.80;;;19.00;53.90;;;;;;5031779;28;20025;-68
2022/03/26 03:30:07;;;;;;;6.18;3.72;;;19.00;54.00;;;;;;5031892;28;20022;-68
2022/03/26 03:32:33;;;;;;;3.40;3.10;;;19.00;54.00;;;;;;5018276;28;20076;-68
2022/03/26 03:34:59;;;;;;;4.78;3.70;;;19.00;54.00;;;;;;5012160;28;20022;-68
2022/03/26 03:37:24;;;;;;;4.32;3.55;;;19.00;54.00;;;;;;5012061;28;20026;-68
2022/03/26 03:39:50;;;;;;;4.55;3.67;;;19.00;54.10;;;;;;5010973;28;20536;-68
2022/03/26 03:42:16;;;;;;;3.63;3.33;;;19.00;54.10;;;;;;5010497;28;20045;-68
2022/03/26 03:44:41;;;;;;;4.72;3.50;;;19.00;54.10;;;;;;5011108;28;20022;-68
2022/03/26 03:47:07;;;;;;;4.25;3.53;;;19.00;54.10;;;;;;5015366;28;20030;-68
2022/03/26 03:49:34;;;;;;;4.53;3.60;;;19.00;54.10;;;;;;5015590;28;20101;-68
2022/03/26 03:51:59;;;;;;;4.00;3.40;;;19.00;54.20;;;;;;5014641;28;20027;-68
2022/03/26 03:54:25;;;;;;;4.65;3.75;;;19.00;54.20;;;;;;5015582;28;20037;-68
2022/03/26 03:56:51;;;;;;;5.10;3.40;;;19.00;54.20;;;;;;5014403;28;20026;-68
2022/03/26 03:59:17;;;;;;;3.92;3.30;;;19.00;54.20;;;;;;5015538;28;20523;-68
2022/03/26 04:01:43;;;;;;;5.00;3.15;;;19.00;54.20;;;;;;5015378;28;20813;-68
2022/03/26 04:04:08;;;;;;;4.25;3.20;;;19.00;54.30;;;;;;5015437;28;20656;-68
2022/03/26 04:06:34;;;;;;;3.78;3.38;;;19.00;54.30;;;;;;5015308;28;20438;-68
2022/03/26 04:08:59;;;;;;;3.63;3.33;;;19.00;54.30;;;;;;5015353;28;20535;-68
2022/03/26 04:11:25;;;;;;;3.80;3.03;;;18.90;54.30;;;;;;5014968;28;20582;-68
2022/03/26 04:13:53;;;;;;;4.07;3.30;;;19.00;54.40;;;;;;5014288;28;20061;-68
2022/03/26 04:16:19;;;;;;;3.75;3.17;;;18.90;54.40;;;;;;5015183;28;20033;-68
2022/03/26 04:18:45;;;;;;;4.72;3.83;;;18.90;54.40;;;;;;5013994;28;20021;-68
2022/03/26 04:21:10;;;;;;;4.13;3.50;;;18.90;54.40;;;;;;5013882;28;20465;-68
2022/03/26 04:23:36;;;;;;;4.85;3.30;;;18.90;54.40;;;;;;5015198;28;20033;-68
2022/03/26 04:26:02;;;;;;;5.05;3.65;;;18.90;54.40;;;;;;5034694;28;20018;-68
2022/03/26 04:28:28;;;;;;;3.72;3.33;;;18.90;54.50;;;;;;5033595;28;20029;-68
2022/03/26 04:30:54;;;;;;;4.97;3.40;;;18.90;54.50;;;;;;5034702;28;20484;-68
2022/03/26 04:33:19;;;;;;;4.80;3.30;;;18.90;54.60;;;;;;5033579;28;20101;-68
2022/03/26 04:35:45;;;;;;;5.78;3.85;;;18.90;55.60;;;;;;5034496;28;20037;-68
2022/03/26 04:38:10;;;;;;;4.63;3.55;;;18.90;54.60;;;;;;5034595;28;20025;-68
2022/03/26 04:40:36;;;;;;;4.68;3.63;;;18.90;54.70;;;;;;5034161;28;20033;-68
2022/03/26 04:43:02;;;;;;;3.55;3.20;;;18.90;54.70;;;;;;5033133;28;20045;-68
2022/03/26 04:45:29;;;;;;;4.82;3.50;;;18.90;54.70;;;;;;5034308;28;20037;-68
2022/03/26 04:47:55;;;;;;;4.28;3.28;;;18.90;54.80;;;;;;5033290;28;20388;-68
2022/03/26 04:50:21;;;;;;;4.82;3.13;;;18.90;54.80;;;;;;5034328;28;20029;-68
2022/03/26 04:52:48;;;;;;;3.80;3.28;;;18.90;54.90;;;;;;5033014;28;20145;-68
2022/03/26 04:55:14;;;;;;;3.83;3.25;;;18.90;54.90;;;;;;5034240;28;20026;-68
2022/03/26 04:57:40;;;;;;;3.80;3.05;;;18.90;54.90;;;;;;5032423;28;20052;-68
2022/03/26 05:00:08;;;;;;;4.13;3.22;;;18.90;54.90;;;;;;5032961;28;20079;-68
2022/03/26 05:02:35;;;;;;;4.50;3.28;;;18.90;54.90;;;;;;5032883;28;20492;-68
2022/03/26 05:05:01;;;;;;;3.55;3.25;;;18.90;54.90;;;;;;5033076;28;20148;-68
2022/03/26 05:10:11;;;;;;;4.45;3.50;;;18.90;54.90;;;;;;5033645;28;20076;-68
2022/03/26 05:12:36;;;;;;;4.40;3.30;;;18.90;55.00;;;;;;5033721;28;20021;-68
2022/03/26 05:15:02;;;;;;;4.10;3.40;;;18.90;55.00;;;;;;5033866;28;20025;-68
2022/03/26 05:17:28;;;;;;;4.25;3.42;;;18.90;55.00;;;;;;5033772;28;20389;-68
2022/03/26 05:19:54;;;;;;;3.97;3.40;;;18.90;55.10;;;;;;5033827;28;20102;-68
2022/03/26 05:22:19;;;;;;;3.67;3.30;;;18.90;55.10;;;;;;5033384;28;20498;-68
2022/03/26 05:24:45;;;;;;;6.20;3.75;;;18.90;55.10;;;;;;5033321;28;20032;-68
2022/03/26 05:27:10;;;;;;;4.45;3.10;;;18.90;55.10;;;;;;5033714;28;20549;-68
2022/03/26 05:29:36;;;;;;;4.45;3.67;;;18.80;55.10;;;;;;5033561;28;20061;-68
2022/03/26 05:32:04;;;;;;;6.20;3.88;;;18.90;55.20;;;;;;5023069;28;20029;-68
2022/03/26 05:34:29;;;;;;;3.97;3.53;;;18.80;55.10;;;;;;5012572;28;20034;-68
2022/03/26 05:36:55;;;;;;;4.88;3.75;;;18.90;55.20;;;;;;5020574;28;20033;-68
2022/03/26 05:39:20;;;;;;;4.20;3.28;;;18.80;55.20;;;;;;5030700;28;20109;-68
2022/03/26 05:41:47;;;;;;;4.35;3.53;;;18.80;55.20;;;;;;5031925;28;20357;-68
2022/03/26 05:44:13;;;;;;;3.95;3.53;;;18.80;55.20;;;;;;5032162;28;20033;-68
2022/03/26 05:46:38;;;;;;;4.85;3.33;;;18.80;55.30;;;;;;5032033;28;20383;-68
2022/03/26 05:49:04;;;;;;;5.80;3.83;;;18.80;55.30;;;;;;5014409;28;20449;-68
2022/03/26 05:51:30;;;;;;;4.72;3.92;;;18.80;55.20;;;;;;5030690;28;20026;-68
2022/03/26 05:53:55;;;;;;;4.15;3.75;;;18.80;55.30;;;;;;5031806;28;20043;-68
2022/03/26 05:56:21;;;;;;;3.75;3.38;;;18.80;55.30;;;;;;5032000;28;20410;-68
2022/03/26 05:58:49;;;;;;;5.45;3.53;;;18.80;55.80;;;;;;5031809;28;20377;-68
2022/03/26 06:01:14;;;;;;;4.05;3.15;;;18.80;55.30;;;;;;5031797;28;20075;-68
2022/03/26 06:03:40;;;;;;;5.65;3.92;;;18.80;55.30;;;;;;5031638;28;20018;-68
2022/03/26 06:06:06;;;;;;;7.30;3.63;;;18.80;55.40;;;;;;5031865;28;20022;-68
2022/03/26 06:08:31;;;;;;;5.75;3.53;;;18.80;55.40;;;;;;5030744;28;20018;-68
2022/03/26 06:10:57;;;;;;;6.10;3.35;;;18.80;55.40;;;;;;5031766;28;20520;-68
2022/03/26 06:13:22;;;;;;;5.60;3.95;;;18.80;55.50;;;;;;5031527;28;20400;-68
2022/03/26 06:15:48;;;;;;;4.47;3.38;;;18.80;55.50;;;;;;5031585;28;20095;-68
2022/03/26 06:18:14;;;;;;;6.18;4.00;;;18.80;55.50;;;;;;5031554;28;20022;-68
2022/03/26 06:20:42;;;;;;;5.15;3.65;;;18.80;55.60;;;;;;5031469;28;20093;-68
2022/03/26 06:23:07;;;;;;;5.78;4.20;;;18.80;55.20;;;;;;5031460;28;20021;-69
2022/03/26 06:25:33;;;;;;;5.00;3.88;;;18.80;55.50;;;;;;5029973;28;20022;-69
2022/03/26 06:27:59;;;;;;;5.60;4.13;;;18.80;55.50;;;;;;5031366;28;20021;-69
2022/03/26 06:30:25;;;;;;;5.97;4.28;;;18.80;55.60;;;;;;5030295;28;20025;-69
2022/03/26 06:32:52;;;;;;;7.90;3.97;;;18.80;55.60;;;;;;5031321;28;20442;-69
2022/03/26 06:35:18;;;;;;;4.30;3.80;;;18.80;55.60;;;;;;5029944;28;20045;-69
2022/03/26 06:37:43;;;;;;;5.25;3.67;;;18.80;55.60;;;;;;5031155;28;20099;-68
2022/03/26 06:40:10;;;;;;;4.22;3.83;;;18.80;55.60;;;;;;5031271;28;20022;-68
2022/03/26 06:42:35;;;;;;;4.82;3.88;;;18.80;55.60;;;;;;5029749;28;20053;-68
2022/03/26 06:45:01;;;;;;;4.72;4.18;;;18.80;55.70;;;;;;5030067;28;20439;-68
2022/03/26 06:47:27;;;;;;;5.15;3.80;;;18.80;55.70;;;;;;5031249;28;20060;-68
2022/03/26 06:49:53;;;;;;;5.65;3.92;;;18.80;55.70;;;;;;5029649;28;20025;-68
2022/03/26 06:52:19;;;;;;;4.70;3.60;;;18.80;55.70;;;;;;5029989;28;20116;-68
2022/03/26 06:54:45;;;;;;;5.63;3.78;;;18.80;55.80;;;;;;5030967;28;20444;-68
2022/03/26 06:57:10;;;;;;;5.68;4.03;;;18.80;55.70;;;;;;5031236;28;20030;-68
2022/03/26 06:59:36;;;;;;;8.07;4.07;;;18.80;55.80;;;;;;5031014;28;20373;-68
2022/03/26 07:02:02;;;;;;;5.93;3.63;;;18.80;55.80;;;;;;5030857;28;20033;-68
2022/03/26 07:04:27;;;;;;;5.72;4.20;;;18.80;55.80;;;;;;5030820;28;20036;-68
2022/03/26 07:06:53;;;;;;;8.00;3.92;;;18.80;55.80;;;;;;5031028;28;20018;-68
2022/03/26 07:09:19;;;;;;;7.18;3.95;;;18.80;55.80;;;;;;5029893;28;20083;-68
2022/03/26 07:11:45;;;;;;;5.60;4.15;;;18.70;55.80;;;;;;5030815;28;20457;-68
2022/03/26 07:14:11;;;;;;;6.82;3.97;;;18.70;55.80;;;;;;5030998;28;20021;-68
2022/03/26 07:16:36;;;;;;;7.70;4.10;;;18.70;55.80;;;;;;5029498;28;20022;-68
2022/03/26 07:19:02;;;;;;;4.35;3.70;;;18.70;55.90;;;;;;5029526;28;20029;-68
2022/03/26 07:21:28;;;;;;;3.97;3.58;;;18.70;55.90;;;;;;5034754;28;20024;-68
2022/03/26 07:23:53;;;;;;;5.20;3.80;;;18.70;55.90;;;;;;5034642;28;20021;-68
2022/03/26 07:26:19;;;;;;;5.50;3.85;;;18.70;55.90;;;;;;5034854;28;20021;-68
2022/03/26 07:28:45;;;;;;;4.88;3.63;;;18.70;55.90;;;;;;5034658;28;20075;-68
2022/03/26 07:31:10;;;;;;;8.02;3.60;;;18.70;55.90;;;;;;5033351;28;20506;-68
2022/03/26 07:33:36;;;;;;;4.50;3.70;;;18.70;56.00;;;;;;5034369;28;20026;-68
2022/03/26 07:36:02;;;;;;;4.38;3.90;;;18.70;55.90;;;;;;5034845;28;20411;-68
2022/03/26 07:38:27;;;;;;;4.47;3.22;;;18.70;55.90;;;;;;5034554;28;20100;-68
2022/03/26 07:40:53;;;;;;;4.45;3.55;;;18.70;55.90;;;;;;5034304;28;20025;-68
2022/03/26 07:43:19;;;;;;;5.18;3.47;;;18.70;56.00;;;;;;5034306;28;20133;-68
2022/03/26 07:45:44;;;;;;;4.30;3.45;;;18.70;56.00;;;;;;5034362;28;20035;-68
2022/03/26 07:48:10;;;;;;;5.53;3.70;;;18.70;56.00;;;;;;5034093;28;20021;-68
2022/03/26 07:50:36;;;;;;;5.22;3.70;;;18.70;56.00;;;;;;5034275;28;20035;-68
2022/03/26 07:53:01;;;;;;;6.10;3.80;;;18.70;56.00;;;;;;5033009;28;20026;-68
2022/03/26 07:55:27;;;;;;;5.03;3.65;;;18.70;56.00;;;;;;5034218;28;20083;-68
2022/03/26 07:57:53;;;;;;;4.35;3.30;;;18.70;56.00;;;;;;5034135;28;20976;-68
2022/03/26 08:00:20;;;;;;;6.60;3.55;;;18.70;56.00;;;;;;5032797;28;20041;-68
2022/03/26 08:02:46;;;;;;;3.60;3.30;;;18.70;56.00;;;;;;5032610;28;20100;-68
2022/03/26 08:05:12;;;;;;;5.15;3.28;;;18.70;56.10;;;;;;5032954;28;20104;-68
2022/03/26 08:07:38;;;;;;;4.15;3.70;;;18.70;56.10;;;;;;5033992;28;20067;-68
2022/03/26 08:10:04;;;;;;;5.82;3.92;;;18.70;56.10;;;;;;5032681;28;20056;-68
2022/03/26 08:12:30;;;;;;;5.45;3.58;;;18.70;56.10;;;;;;5032761;28;20014;-68
2022/03/26 08:14:55;;;;;;;4.35;3.80;;;18.70;56.10;;;;;;5033693;28;20026;-68
2022/03/26 08:17:21;;;;;;;5.50;3.80;;;18.60;56.10;;;;;;5034136;28;20083;-68
2022/03/26 08:19:47;;;;;;;5.95;3.95;;;18.60;56.10;;;;;;5033773;28;20064;-68
2022/03/26 08:22:12;;;;;;;5.28;3.85;;;18.70;56.10;;;;;;5033621;28;20029;-68
2022/03/26 08:24:38;;;;;;;6.32;4.10;;;18.60;56.10;;;;;;5033602;28;20542;-68
2022/03/26 08:27:04;;;;;;;5.60;4.20;;;18.60;56.10;;;;;;5033501;28;20018;-68
2022/03/26 08:29:30;;;;;;;6.25;3.72;;;18.60;56.20;;;;;;5033600;28;20075;-68
2022/03/26 08:31:56;;;;;;;5.05;3.80;;;18.60;56.10;;;;;;5032396;28;20022;-68
2022/03/26 08:34:21;;;;;;;5.60;4.03;;;18.60;56.20;;;;;;5033506;28;20037;-68
2022/03/26 08:36:47;;;;;;;5.50;3.67;;;18.60;56.20;;;;;;5033333;28;20030;-68
2022/03/26 08:39:13;;;;;;;5.55;3.28;;;18.60;56.20;;;;;;5033542;28;20029;-68
2022/03/26 08:41:38;;;;;;;5.32;4.20;;;18.60;56.20;;;;;;5032150;28;20431;-68
2022/03/26 08:44:04;;;;;;;5.35;3.78;;;18.60;56.20;;;;;;5033074;28;20049;-68
2022/03/26 08:46:30;;;;;;;4.55;3.65;;;18.60;56.20;;;;;;5033280;28;20030;-68
2022/03/26 08:48:58;;;;;;;5.25;3.92;;;18.60;56.30;;;;;;5033126;28;20021;-69
2022/03/26 08:51:23;;;;;;;5.15;4.15;;;18.60;56.20;;;;;;5031844;28;20407;-68
2022/03/26 08:53:49;;;;;;;6.80;3.92;;;18.60;56.30;;;;;;5031811;28;20523;-68
2022/03/26 08:56:15;;;;;;;3.83;3.53;;;18.60;56.30;;;;;;5033065;28;20022;-69
2022/03/26 08:58:40;;;;;;;5.15;3.80;;;18.60;56.30;;;;;;5030977;28;20029;-69
2022/03/26 09:01:07;;;;;;;12.98;8.93;;;18.60;56.40;;;;;;5032705;28;20105;-69
2022/03/26 09:03:37;;;;;;;25.83;16.23;;;18.60;56.20;;;;;;5031805;28;20464;-69
2022/03/26 09:06:03;;;;;;;35.35;22.45;;;18.60;56.00;;;;;;5031615;28;20476;-69
2022/03/26 09:08:29;;;;;;;37.30;24.77;;;18.50;55.80;;;;;;5031796;28;20025;-69
2022/03/26 09:10:54;;;;;;;42.53;26.65;;;18.50;55.60;;;;;;5032709;28;20025;-69
2022/03/26 09:13:20;;;;;;;45.17;29.30;;;18.40;55.60;;;;;;5032722;28;20419;-69
2022/03/26 09:15:46;;;;;;;45.55;29.50;;;18.40;55.50;;;;;;5032484;28;20026;-69
2022/03/26 09:18:11;;;;;;;51.65;33.25;;;18.30;55.40;;;;;;5031325;28;20017;-70
2022/03/26 09:20:38;;;;;;;51.33;32.97;;;18.30;55.30;;;;;;5031338;28;20152;-70
2022/03/26 09:23:04;;;;;;;52.08;34.47;;;18.30;55.30;;;;;;5032534;28;20025;-68
2022/03/26 09:25:30;;;;;;;54.05;34.03;;;18.30;55.20;;;;;;5032535;28;20021;-67
2022/03/26 09:27:55;;;;;;;57.80;35.22;;;18.20;55.10;;;;;;5032460;28;20109;-67
2022/03/26 09:30:21;;;;;;;56.72;34.83;;;18.20;55.10;;;;;;5032128;28;20480;-67
2022/03/26 09:32:47;;;;;;;55.05;36.03;;;18.20;56.00;;;;;;5032163;28;20024;-67
2022/03/26 09:35:13;;;;;;;52.40;35.75;;;18.10;54.90;;;;;;5031087;28;20024;-67
2022/03/26 09:37:40;;;;;;;58.50;37.35;;;18.10;54.80;;;;;;5032267;28;20057;-69
2022/03/26 09:40:06;;;;;;;56.15;35.95;;;18.10;54.80;;;;;;5030998;28;20025;-66
2022/03/26 09:42:33;;;;;;;58.17;37.47;;;18.10;54.70;;;;;;5031424;28;20041;-68
2022/03/26 09:44:59;;;;;;;59.65;37.75;;;18.10;54.70;;;;;;5030160;28;20539;-67
2022/03/26 09:47:24;;;;;;;60.17;37.75;;;18.00;54.60;;;;;;5032155;28;20096;-71
2022/03/26 09:49:50;;;;;;;57.20;36.90;;;18.10;54.70;;;;;;5032002;28;20476;-68
2022/03/26 09:52:16;;;;;;;55.05;36.63;;;18.00;54.50;;;;;;5030891;28;20404;-68
2022/03/26 09:54:42;;;;;;;56.65;35.22;;;18.00;54.40;;;;;;5030791;28;20029;-68
2022/03/26 09:57:08;;;;;;;53.85;34.78;;;18.00;54.50;;;;;;5014268;28;20553;-69
2022/03/26 09:59:34;;;;;;;53.80;33.50;;;18.00;54.40;;;;;;5031645;28;20021;-67
2022/03/26 10:02:01;;;;;;;54.78;35.05;;;18.00;54.40;;;;;;5031634;28;20033;-67
2022/03/26 10:04:37;;;;;;;52.20;34.15;;;17.90;54.30;;;;;;5031761;28;20021;-68
2022/03/26 10:07:04;;;;;;;57.72;33.60;;;17.90;54.30;;;;;;5028499;28;20498;-68
2022/03/26 10:09:36;;;;;;;54.72;34.67;;;18.00;54.40;;;;;;5030536;28;20070;-68
2022/03/26 10:12:24;;;;;;;55.58;34.15;;;17.90;54.30;;;;;;5031493;28;20025;-68
2022/03/26 10:14:54;;;;;;;55.28;34.17;;;18.00;54.00;;;;;;5029611;28;20163;-68
2022/03/26 10:17:28;;;;;;;47.55;31.75;;;17.90;54.40;;;;;;5014349;28;20112;-68
2022/03/26 10:19:58;;;;;;;51.22;32.80;;;17.90;54.30;;;;;;5029134;28;20021;-68
2022/03/26 10:22:25;;;;;;;49.70;32.33;;;17.90;54.30;;;;;;5013899;28;20029;-68
2022/03/26 10:24:51;;;;;;;52.72;32.55;;;17.90;54.30;;;;;;5029894;28;20522;-68
2022/03/26 10:27:17;;;;;;;56.50;34.17;;;17.90;54.30;;;;;;5031309;28;20064;-68
2022/03/26 10:29:50;;;;;;;49.17;32.90;;;17.90;54.30;;;;;;5030233;28;20388;-69
2022/03/26 10:32:40;;;;;;;56.28;33.95;;;17.90;54.00;;;;;;5030071;28;20551;-68
2022/03/26 10:35:13;;;;;;;52.67;34.10;;;17.80;54.00;;;;;;5029176;28;20029;-68
2022/03/26 10:37:46;;;;;;;53.03;33.60;;;17.80;54.20;;;;;;5029485;28;20017;-68
2022/03/26 10:40:17;;;;;;;55.70;34.35;;;17.80;54.10;;;;;;5030027;28;20017;-68
2022/03/26 10:42:43;;;;;;;51.65;34.10;;;17.80;54.00;;;;;;5030819;28;20095;-68
2022/03/26 10:45:15;;;;;;;53.72;35.33;;;17.80;54.10;;;;;;5013658;28;20029;-68
2022/03/26 10:47:40;;;;;;;54.63;34.92;;;17.80;54.00;;;;;;5013674;28;20037;-68
2022/03/26 10:50:06;;;;;;;52.13;33.75;;;17.80;54.00;;;;;;5029906;28;20101;-67
2022/03/26 10:52:32;;;;;;;62.15;37.22;;;17.80;54.00;;;;;;5031111;28;20504;-67
2022/03/26 10:54:59;;;;;;;59.90;38.72;;;17.80;54.00;;;;;;5030646;28;20075;-67
2022/03/26 10:57:25;;;;;;;58.10;37.22;;;17.80;54.00;;;;;;5029665;28;20116;-67
2022/03/26 10:59:51;;;;;;;54.38;36.10;;;17.80;54.00;;;;;;5013552;28;20021;-67
2022/03/26 11:02:17;;;;;;;57.15;35.90;;;17.70;54.00;;;;;;5029606;28;20025;-67
2022/03/26 11:04:42;;;;;;;54.58;36.05;;;17.70;54.00;;;;;;5031027;28;20025;-67
2022/03/26 11:07:08;;;;;;;55.97;35.92;;;17.80;54.00;;;;;;5032224;28;20025;-69
2022/03/26 11:09:34;;;;;;;57.20;37.45;;;17.80;54.90;;;;;;5031086;28;20021;-69
2022/03/26 11:11:59;;;;;;;52.97;35.17;;;17.80;54.00;;;;;;5030493;28;20579;-67
2022/03/26 11:14:33;;;;;;;53.92;35.35;;;17.80;53.90;;;;;;5030715;28;20120;-67
2022/03/26 11:17:14;;;;;;;49.72;33.83;;;17.80;53.90;;;;;;5030838;28;20026;-67
2022/03/26 11:19:41;;;;;;;51.45;32.72;;;17.80;53.80;;;;;;5032179;28;20108;-69
2022/03/26 11:22:12;;;;;;;53.92;33.40;;;17.70;53.80;;;;;;5030644;28;20030;-69
2022/03/26 11:25:03;;;;;;;47.40;30.77;;;17.80;53.90;;;;;;5010922;28;20416;-69
2022/03/26 11:28:00;;;;;;;52.83;32.95;;;17.70;53.50;;;;;;5010976;28;20026;-69
2022/03/26 11:31:01;;;;;;;49.75;32.85;;;17.80;53.50;;;;;;5012458;28;20033;-69
2022/03/26 11:33:33;;;;;;;43.80;29.27;;;17.70;53.50;;;;;;5022820;28;20063;-69
2022/03/26 11:36:00;;;;;;;44.20;29.17;;;17.70;54.00;;;;;;5011084;28;20510;-69
2022/03/26 11:38:28;;;;;;;42.95;28.25;;;17.60;53.90;;;;;;5012303;28;20022;-69
2022/03/26 11:40:55;;;;;;;44.25;28.52;;;17.70;53.90;;;;;;5011889;28;20028;-69
2022/03/26 11:43:44;;;;;;;42.65;27.40;;;17.70;53.80;;;;;;5012053;28;20100;-69
2022/03/26 11:52:15;;;;;;;43.28;28.45;;;17.70;53.80;;;;;;4957399;28;20078;-70
2022/03/26 11:54:41;;;;;;;41.05;28.58;;;17.70;53.60;;;;;;4953712;28;20038;-70
2022/03/26 11:57:07;;;;;;;44.17;29.08;;;17.70;54.80;;;;;;4954677;28;20051;-70
2022/03/26 11:59:35;;;;;;;48.95;29.33;;;17.70;53.80;;;;;;4970911;28;20033;-69
2022/03/26 12:02:14;;;;;;;46.42;28.95;;;17.70;53.70;;;;;;4938967;28;20041;-70
2022/03/26 12:04:47;;;;;;;44.65;29.27;;;17.70;53.70;;;;;;4956746;28;20027;-69
2022/03/26 12:07:15;;;;;;;44.70;30.10;;;17.80;53.60;;;;;;4956672;28;20031;-70
2022/03/26 12:09:41;;;;;;;47.10;28.90;;;17.70;53.50;;;;;;4974111;28;20387;-69
2022/03/26 12:12:10;;;;;;;45.08;29.08;;;17.70;53.50;;;;;;4974208;28;20033;-69
2022/03/26 12:15:04;;;;;;;43.90;28.90;;;17.70;53.50;;;;;;4974352;28;20038;-72
2022/03/26 12:17:42;;;;;;;43.55;27.13;;;17.80;53.30;;;;;;4974008;28;20026;-69
2022/03/26 12:20:18;;;;;;;42.75;27.23;;;17.80;53.40;;;;;;4973799;28;20027;-69
2022/03/26 12:22:44;;;;;;;44.70;27.73;;;17.70;53.30;;;;;;4966821;28;20125;-69
2022/03/26 12:25:11;;;;;;;42.20;26.88;;;17.80;53.50;;;;;;4979413;28;20109;-69
2022/03/26 12:27:40;;;;;;;44.22;27.40;;;17.80;53.50;;;;;;4981835;28;20022;-69
2022/03/26 12:30:06;;;;;;;39.60;26.55;;;17.80;53.40;;;;;;5034004;28;20021;-69
2022/03/26 12:32:32;;;;;;;41.45;27.02;;;17.80;53.40;;;;;;5064083;28;20018;-70
2022/03/26 12:35:01;;;;;;;42.25;27.13;;;17.80;53.40;;;;;;5047286;28;20091;-68
2022/03/26 12:37:27;;;;;;;39.88;26.60;;;17.80;53.40;;;;;;5065022;28;20644;-69
2022/03/26 12:39:53;;;;;;;39.38;26.00;;;17.80;53.30;;;;;;5040395;28;20104;-70
2022/03/26 12:42:19;;;;;;;42.67;26.73;;;17.80;53.30;;;;;;5042221;28;20049;-69
2022/03/26 12:44:45;;;;;;;39.25;26.02;;;17.80;53.20;;;;;;5024087;28;20029;-68
2022/03/26 12:47:17;;;;;;;38.92;25.55;;;17.80;53.20;;;;;;5039614;28;20009;-68